sensor_id;sensor_type;location;lat;lon;timestamp;pressure;altitude;pressure_sealevel;temperature;humidity
56456;BME280;42354;53.218;6.564;2023-01-26T00:01:13;46997.53;;;-142.92;96.27
56456;BME280;42354;53.218;6.564;2023-01-26T00:03:39;47020.13;;;-142.92;96.33
56456;BME280;42354;53.218;6.564;2023-01-26T00:06:05;47030.38;;;-142.92;96.31
56456;BME280;42354;53.218;6.564;2023-01-26T00:08:36;47009.84;;;-142.92;96.22
56456;BME280;42354;53.218;6.564;2023-01-26T00:11:04;47020.13;;;-142.92;96.40
56456;BME280;42354;53.218;6.564;2023-01-26T00:13:29;46995.50;;;-142.92;96.17
56456;BME280;42354;53.218;6.564;2023-01-26T00:15:55;47007.81;;;-142.92;96.09
56456;BME280;42354;53.218;6.564;2023-01-26T00:18:20;47003.69;;;-142.92;96.31
56456;BME280;42354;53.218;6.564;2023-01-26T00:20:45;46999.59;;;-142.92;96.34
56456;BME280;42354;53.218;6.564;2023-01-26T00:23:10;47018.06;;;-142.92;96.38
56456;BME280;42354;53.218;6.564;2023-01-26T00:25:37;47009.84;;;-142.92;96.36
56456;BME280;42354;53.218;6.564;2023-01-26T00:28:04;46991.38;;;-142.92;96.43
56456;BME280;42354;53.218;6.564;2023-01-26T00:30:31;46987.28;;;-142.92;96.32
56456;BME280;42354;53.218;6.564;2023-01-26T00:32:57;47016.00;;;-142.92;96.25
56456;BME280;42354;53.218;6.564;2023-01-26T00:35:23;46987.28;;;-142.92;96.25
56456;BME280;42354;53.218;6.564;2023-01-26T00:37:48;46981.13;;;-142.92;96.23
56456;BME280;42354;53.218;6.564;2023-01-26T00:40:14;46999.59;;;-142.92;96.24
56456;BME280;42354;53.218;6.564;2023-01-26T00:42:39;47016.00;;;-142.92;96.43
56456;BME280;42354;53.218;6.564;2023-01-26T00:45:05;47026.28;;;-142.92;96.26
56456;BME280;42354;53.218;6.564;2023-01-26T00:47:30;46999.59;;;-142.92;96.36
56456;BME280;42354;53.218;6.564;2023-01-26T00:49:56;47016.00;;;-142.92;96.40
56456;BME280;42354;53.218;6.564;2023-01-26T00:52:21;47001.66;;;-142.92;96.40
56456;BME280;42354;53.218;6.564;2023-01-26T00:54:46;46993.44;;;-142.92;96.59
56456;BME280;42354;53.218;6.564;2023-01-26T00:57:12;47013.97;;;-142.92;96.55
56456;BME280;42354;53.218;6.564;2023-01-26T00:59:37;46991.38;;;-142.92;96.61
56456;BME280;42354;53.218;6.564;2023-01-26T01:02:03;46979.06;;;-142.92;96.67
56456;BME280;42354;53.218;6.564;2023-01-26T01:04:29;47028.31;;;-142.92;96.61
56456;BME280;42354;53.218;6.564;2023-01-26T01:06:56;47003.69;;;-142.92;96.76
56456;BME280;42354;53.218;6.564;2023-01-26T01:09:21;47013.97;;;-142.92;96.68
56456;BME280;42354;53.218;6.564;2023-01-26T01:11:46;46999.59;;;-142.92;97.03
56456;BME280;42354;53.218;6.564;2023-01-26T01:14:12;47007.81;;;-142.92;97.04
56456;BME280;42354;53.218;6.564;2023-01-26T01:16:40;47007.81;;;-142.92;96.98
56456;BME280;42354;53.218;6.564;2023-01-26T01:19:06;46999.59;;;-142.92;96.92
56456;BME280;42354;53.218;6.564;2023-01-26T01:21:32;46997.53;;;-142.92;97.02
56456;BME280;42354;53.218;6.564;2023-01-26T01:23:58;47034.47;;;-142.92;97.13
56456;BME280;42354;53.218;6.564;2023-01-26T01:26:24;46991.38;;;-142.92;96.99
56456;BME280;42354;53.218;6.564;2023-01-26T01:28:53;46995.50;;;-142.92;97.06
56456;BME280;42354;53.218;6.564;2023-01-26T01:31:19;46995.50;;;-142.92;97.06
56456;BME280;42354;53.218;6.564;2023-01-26T01:33:45;47007.81;;;-142.92;97.13
56456;BME280;42354;53.218;6.564;2023-01-26T01:36:13;46997.53;;;-142.92;97.04
56456;BME280;42354;53.218;6.564;2023-01-26T01:38:40;47024.22;;;-142.92;97.04
56456;BME280;42354;53.218;6.564;2023-01-26T01:41:06;47020.13;;;-142.92;96.88
56456;BME280;42354;53.218;6.564;2023-01-26T01:43:32;46989.34;;;-142.92;96.85
56456;BME280;42354;53.218;6.564;2023-01-26T01:45:59;47020.13;;;-142.92;97.00
56456;BME280;42354;53.218;6.564;2023-01-26T01:50:57;47003.69;;;-142.92;96.94
56456;BME280;42354;53.218;6.564;2023-01-26T01:53:29;47024.22;;;-142.92;97.44
56456;BME280;42354;53.218;6.564;2023-01-26T01:55:58;47020.13;;;-142.92;96.88
56456;BME280;42354;53.218;6.564;2023-01-26T01:58:29;47003.69;;;-142.92;97.19
56456;BME280;42354;53.218;6.564;2023-01-26T02:00:56;47005.75;;;-142.92;97.43
56456;BME280;42354;53.218;6.564;2023-01-26T02:03:23;46995.50;;;-142.92;97.57
56456;BME280;42354;53.218;6.564;2023-01-26T02:11:09;47007.81;;;-142.92;97.58
56456;BME280;42354;53.218;6.564;2023-01-26T02:13:36;47007.81;;;-142.92;97.70
56456;BME280;42354;53.218;6.564;2023-01-26T02:16:02;47001.66;;;-142.92;97.96
56456;BME280;42354;53.218;6.564;2023-01-26T02:18:28;47007.81;;;-142.92;97.97
56456;BME280;42354;53.218;6.564;2023-01-26T02:20:58;47011.91;;;-142.92;97.99
56456;BME280;42354;53.218;6.564;2023-01-26T02:26:14;46995.50;;;-142.92;98.25
56456;BME280;42354;53.218;6.564;2023-01-26T02:28:42;47007.81;;;-142.92;98.35
56456;BME280;42354;53.218;6.564;2023-01-26T02:31:09;47018.06;;;-142.92;98.13
56456;BME280;42354;53.218;6.564;2023-01-26T02:33:36;47016.00;;;-142.92;98.33
56456;BME280;42354;53.218;6.564;2023-01-26T02:36:02;47024.22;;;-142.92;98.21
56456;BME280;42354;53.218;6.564;2023-01-26T02:38:48;46995.50;;;-142.92;98.11
56456;BME280;42354;53.218;6.564;2023-01-26T02:41:16;47003.69;;;-142.92;98.45
56456;BME280;42354;53.218;6.564;2023-01-26T02:44:03;47030.38;;;-142.92;98.43
56456;BME280;42354;53.218;6.564;2023-01-26T02:46:29;47022.16;;;-142.92;98.78
56456;BME280;42354;53.218;6.564;2023-01-26T02:48:55;46991.38;;;-142.92;98.71
56456;BME280;42354;53.218;6.564;2023-01-26T02:51:39;47016.00;;;-142.92;98.83
56456;BME280;42354;53.218;6.564;2023-01-26T02:54:04;47028.31;;;-142.92;98.84
56456;BME280;42354;53.218;6.564;2023-01-26T02:56:29;47013.97;;;-142.92;98.94
56456;BME280;42354;53.218;6.564;2023-01-26T02:58:55;47020.13;;;-142.92;99.10
56456;BME280;42354;53.218;6.564;2023-01-26T03:01:20;47016.00;;;-142.92;99.07
56456;BME280;42354;53.218;6.564;2023-01-26T03:03:45;47005.75;;;-142.92;99.24
56456;BME280;42354;53.218;6.564;2023-01-26T03:06:11;47011.91;;;-142.92;99.32
56456;BME280;42354;53.218;6.564;2023-01-26T03:08:37;47028.31;;;-142.92;99.15
56456;BME280;42354;53.218;6.564;2023-01-26T03:11:04;47018.06;;;-142.92;99.27
56456;BME280;42354;53.218;6.564;2023-01-26T03:13:31;47007.81;;;-142.92;99.12
56456;BME280;42354;53.218;6.564;2023-01-26T03:15:56;47016.00;;;-142.92;99.27
56456;BME280;42354;53.218;6.564;2023-01-26T03:18:27;47009.84;;;-142.92;99.39
56456;BME280;42354;53.218;6.564;2023-01-26T03:21:15;47011.91;;;-142.92;99.33
56456;BME280;42354;53.218;6.564;2023-01-26T03:23:59;47016.00;;;-142.92;99.56
56456;BME280;42354;53.218;6.564;2023-01-26T03:26:44;47007.81;;;-142.92;99.66
56456;BME280;42354;53.218;6.564;2023-01-26T03:29:27;47020.13;;;-142.92;99.58
56456;BME280;42354;53.218;6.564;2023-01-26T03:31:53;47003.69;;;-142.92;99.50
56456;BME280;42354;53.218;6.564;2023-01-26T03:34:19;46970.88;;;-142.92;99.56
56456;BME280;42354;53.218;6.564;2023-01-26T03:36:45;47009.84;;;-142.92;99.68
56456;BME280;42354;53.218;6.564;2023-01-26T03:39:10;46997.53;;;-142.92;99.63
56456;BME280;42354;53.218;6.564;2023-01-26T03:41:56;47042.69;;;-142.92;99.71
56456;BME280;42354;53.218;6.564;2023-01-26T03:44:40;47011.91;;;-142.92;99.64
56456;BME280;42354;53.218;6.564;2023-01-26T03:47:24;46995.50;;;-142.92;99.64
56456;BME280;42354;53.218;6.564;2023-01-26T03:50:08;47022.16;;;-142.92;99.79
56456;BME280;42354;53.218;6.564;2023-01-26T03:52:53;47016.00;;;-142.92;99.74
56456;BME280;42354;53.218;6.564;2023-01-26T03:55:37;47048.84;;;-142.92;99.68
56456;BME280;42354;53.218;6.564;2023-01-26T03:58:21;47011.91;;;-142.92;99.87
56456;BME280;42354;53.218;6.564;2023-01-26T04:00:48;47013.97;;;-142.92;99.90
56456;BME280;42354;53.218;6.564;2023-01-26T04:03:13;47007.81;;;-142.92;99.86
56456;BME280;42354;53.218;6.564;2023-01-26T04:05:58;46999.59;;;-142.92;99.79
56456;BME280;42354;53.218;6.564;2023-01-26T04:08:43;46999.59;;;-142.92;99.89
56456;BME280;42354;53.218;6.564;2023-01-26T04:11:08;47016.00;;;-142.92;99.91
56456;BME280;42354;53.218;6.564;2023-01-26T04:13:34;47020.13;;;-142.92;100.00
56456;BME280;42354;53.218;6.564;2023-01-26T04:16:19;47003.69;;;-142.92;99.97
56456;BME280;42354;53.218;6.564;2023-01-26T04:19:03;47018.06;;;-142.92;100.00
56456;BME280;42354;53.218;6.564;2023-01-26T04:21:47;47018.06;;;-142.92;100.00
56456;BME280;42354;53.218;6.564;2023-01-26T04:24:13;47030.38;;;-142.92;99.93
56456;BME280;42354;53.218;6.564;2023-01-26T04:26:39;47009.84;;;-142.92;100.00
56456;BME280;42354;53.218;6.564;2023-01-26T04:29:13;47005.75;;;-142.92;100.00
56456;BME280;42354;53.218;6.564;2023-01-26T04:31:40;47007.81;;;-142.92;100.00
56456;BME280;42354;53.218;6.564;2023-01-26T04:34:09;47007.81;;;-142.92;100.00
56456;BME280;42354;53.218;6.564;2023-01-26T04:36:35;47007.81;;;-142.92;100.00
56456;BME280;42354;53.218;6.564;2023-01-26T04:39:00;47024.22;;;-142.92;100.00
56456;BME280;42354;53.218;6.564;2023-01-26T04:41:28;47003.69;;;-142.92;100.00
56456;BME280;42354;53.218;6.564;2023-01-26T04:43:53;47020.13;;;-142.92;100.00
56456;BME280;42354;53.218;6.564;2023-01-26T04:46:19;46999.59;;;-142.92;100.00
56456;BME280;42354;53.218;6.564;2023-01-26T04:48:44;47036.53;;;-142.92;100.00
56456;BME280;42354;53.218;6.564;2023-01-26T04:51:15;46997.53;;;-142.92;100.00
56456;BME280;42354;53.218;6.564;2023-01-26T04:53:41;46997.53;;;-142.92;100.00
56456;BME280;42354;53.218;6.564;2023-01-26T04:56:07;47001.66;;;-142.92;100.00
56456;BME280;42354;53.218;6.564;2023-01-26T04:58:38;47005.75;;;-142.92;100.00
56456;BME280;42354;53.218;6.564;2023-01-26T05:01:04;47011.91;;;-142.92;100.00
56456;BME280;42354;53.218;6.564;2023-01-26T05:03:31;47007.81;;;-142.92;100.00
56456;BME280;42354;53.218;6.564;2023-01-26T05:05:56;47016.00;;;-142.92;100.00
56456;BME280;42354;53.218;6.564;2023-01-26T05:08:22;47007.81;;;-142.92;100.00
56456;BME280;42354;53.218;6.564;2023-01-26T05:10:47;47003.69;;;-142.92;100.00
56456;BME280;42354;53.218;6.564;2023-01-26T05:13:13;47007.81;;;-142.92;100.00
56456;BME280;42354;53.218;6.564;2023-01-26T05:15:39;47034.47;;;-142.92;100.00
56456;BME280;42354;53.218;6.564;2023-01-26T05:18:05;47003.69;;;-142.92;100.00
56456;BME280;42354;53.218;6.564;2023-01-26T05:20:31;46987.28;;;-142.92;100.00
56456;BME280;42354;53.218;6.564;2023-01-26T05:22:57;46997.53;;;-142.92;100.00
56456;BME280;42354;53.218;6.564;2023-01-26T05:25:22;47040.63;;;-142.92;100.00
56456;BME280;42354;53.218;6.564;2023-01-26T05:27:48;47020.13;;;-142.92;100.00
56456;BME280;42354;53.218;6.564;2023-01-26T05:30:14;47011.91;;;-142.92;100.00
56456;BME280;42354;53.218;6.564;2023-01-26T05:32:39;46991.38;;;-142.92;100.00
56456;BME280;42354;53.218;6.564;2023-01-26T05:35:05;47003.69;;;-142.92;100.00
56456;BME280;42354;53.218;6.564;2023-01-26T05:37:32;47007.81;;;-142.92;100.00
56456;BME280;42354;53.218;6.564;2023-01-26T05:39:57;47020.13;;;-142.92;100.00
56456;BME280;42354;53.218;6.564;2023-01-26T05:42:23;47020.13;;;-142.92;100.00
56456;BME280;42354;53.218;6.564;2023-01-26T05:44:49;47011.91;;;-142.92;100.00
56456;BME280;42354;53.218;6.564;2023-01-26T05:47:14;47013.97;;;-142.92;100.00
56456;BME280;42354;53.218;6.564;2023-01-26T05:49:40;47032.44;;;-142.92;100.00
56456;BME280;42354;53.218;6.564;2023-01-26T05:52:15;47020.13;;;-142.92;100.00
56456;BME280;42354;53.218;6.564;2023-01-26T05:54:40;46997.53;;;-142.92;100.00
56456;BME280;42354;53.218;6.564;2023-01-26T05:57:07;47003.69;;;-142.92;100.00
56456;BME280;42354;53.218;6.564;2023-01-26T05:59:32;46995.50;;;-142.92;100.00
56456;BME280;42354;53.218;6.564;2023-01-26T06:01:58;47036.53;;;-142.92;100.00
56456;BME280;42354;53.218;6.564;2023-01-26T06:04:23;47011.91;;;-142.92;100.00
56456;BME280;42354;53.218;6.564;2023-01-26T06:06:52;47024.22;;;-142.92;100.00
56456;BME280;42354;53.218;6.564;2023-01-26T06:09:18;47016.00;;;-142.92;100.00
56456;BME280;42354;53.218;6.564;2023-01-26T06:11:43;47028.31;;;-142.92;100.00
56456;BME280;42354;53.218;6.564;2023-01-26T06:14:08;47001.66;;;-142.92;100.00
56456;BME280;42354;53.218;6.564;2023-01-26T06:16:34;47007.81;;;-142.92;100.00
56456;BME280;42354;53.218;6.564;2023-01-26T06:18:59;47007.81;;;-142.92;100.00
56456;BME280;42354;53.218;6.564;2023-01-26T06:21:24;47016.00;;;-142.92;100.00
56456;BME280;42354;53.218;6.564;2023-01-26T06:23:50;47026.28;;;-142.92;100.00
56456;BME280;42354;53.218;6.564;2023-01-26T06:26:15;47061.16;;;-142.92;100.00
56456;BME280;42354;53.218;6.564;2023-01-26T06:28:40;47085.78;;;-142.92;100.00
56456;BME280;42354;53.218;6.564;2023-01-26T06:31:07;47110.41;;;-142.92;100.00
56456;BME280;42354;53.218;6.564;2023-01-26T06:33:34;47114.50;;;-142.92;100.00
56456;BME280;42354;53.218;6.564;2023-01-26T06:36:04;47118.63;;;-142.92;100.00
56456;BME280;42354;53.218;6.564;2023-01-26T06:38:29;47147.34;;;-142.92;100.00
56456;BME280;42354;53.218;6.564;2023-01-26T06:41:02;47151.44;;;-142.92;100.00
56456;BME280;42354;53.218;6.564;2023-01-26T06:43:28;47159.66;;;-142.92;100.00
56456;BME280;42354;53.218;6.564;2023-01-26T06:45:55;47167.88;;;-142.92;100.00
56456;BME280;42354;53.218;6.564;2023-01-26T06:48:22;47169.91;;;-142.92;100.00
56456;BME280;42354;53.218;6.564;2023-01-26T06:50:49;47190.44;;;-142.92;100.00
56456;BME280;42354;53.218;6.564;2023-01-26T06:53:37;47202.75;;;-142.92;100.00
56456;BME280;42354;53.218;6.564;2023-01-26T06:56:04;47213.03;;;-142.92;100.00
56456;BME280;42354;53.218;6.564;2023-01-26T06:58:30;47208.91;;;-142.92;100.00
56456;BME280;42354;53.218;6.564;2023-01-26T07:00:56;47215.06;;;-142.92;100.00
56456;BME280;42354;53.218;6.564;2023-01-26T07:03:21;47215.06;;;-142.92;100.00
56456;BME280;42354;53.218;6.564;2023-01-26T07:05:47;47223.28;;;-142.92;100.00
56456;BME280;42354;53.218;6.564;2023-01-26T07:08:12;47210.97;;;-142.92;100.00
56456;BME280;42354;53.218;6.564;2023-01-26T07:10:38;47221.22;;;-142.92;100.00
56456;BME280;42354;53.218;6.564;2023-01-26T07:13:04;47233.53;;;-142.92;100.00
56456;BME280;42354;53.218;6.564;2023-01-26T07:15:30;47223.28;;;-142.92;100.00
56456;BME280;42354;53.218;6.564;2023-01-26T07:17:57;47227.38;;;-142.92;100.00
56456;BME280;42354;53.218;6.564;2023-01-26T07:20:22;47237.66;;;-142.92;100.00
56456;BME280;42354;53.218;6.564;2023-01-26T07:22:47;47237.66;;;-142.92;100.00
56456;BME280;42354;53.218;6.564;2023-01-26T07:25:14;47231.50;;;-142.92;100.00
56456;BME280;42354;53.218;6.564;2023-01-26T07:27:40;47247.91;;;-142.92;100.00
56456;BME280;42354;53.218;6.564;2023-01-26T07:30:06;47243.81;;;-142.92;100.00
56456;BME280;42354;53.218;6.564;2023-01-26T07:32:31;47252.00;;;-142.92;100.00
56456;BME280;42354;53.218;6.564;2023-01-26T07:34:56;47254.06;;;-142.92;100.00
56456;BME280;42354;53.218;6.564;2023-01-26T07:37:26;47258.16;;;-142.92;100.00
56456;BME280;42354;53.218;6.564;2023-01-26T07:39:51;47254.06;;;-142.92;100.00
56456;BME280;42354;53.218;6.564;2023-01-26T07:42:17;47268.44;;;-142.92;100.00
56456;BME280;42354;53.218;6.564;2023-01-26T07:44:42;47258.16;;;-142.92;100.00
56456;BME280;42354;53.218;6.564;2023-01-26T07:47:07;47264.31;;;-142.92;100.00
56456;BME280;42354;53.218;6.564;2023-01-26T07:49:33;47262.28;;;-142.92;100.00
56456;BME280;42354;53.218;6.564;2023-01-26T07:51:58;47264.31;;;-142.92;100.00
56456;BME280;42354;53.218;6.564;2023-01-26T07:54:23;47262.28;;;-142.92;100.00
56456;BME280;42354;53.218;6.564;2023-01-26T07:56:52;47264.31;;;-142.92;100.00
56456;BME280;42354;53.218;6.564;2023-01-26T07:59:19;47268.44;;;-142.92;100.00
56456;BME280;42354;53.218;6.564;2023-01-26T08:01:45;47270.47;;;-142.92;100.00
56456;BME280;42354;53.218;6.564;2023-01-26T08:04:10;47274.59;;;-142.92;100.00
56456;BME280;42354;53.218;6.564;2023-01-26T08:06:36;47262.28;;;-142.92;100.00
56456;BME280;42354;53.218;6.564;2023-01-26T08:09:02;47268.44;;;-142.92;100.00
56456;BME280;42354;53.218;6.564;2023-01-26T08:11:28;47268.44;;;-142.92;100.00
56456;BME280;42354;53.218;6.564;2023-01-26T08:13:54;47274.59;;;-142.92;100.00
56456;BME280;42354;53.218;6.564;2023-01-26T08:16:19;47270.47;;;-142.92;100.00
56456;BME280;42354;53.218;6.564;2023-01-26T08:18:45;47274.59;;;-142.92;100.00
56456;BME280;42354;53.218;6.564;2023-01-26T08:21:13;47282.78;;;-142.92;100.00
56456;BME280;42354;53.218;6.564;2023-01-26T08:23:38;47278.69;;;-142.92;100.00
56456;BME280;42354;53.218;6.564;2023-01-26T08:26:09;47276.63;;;-142.92;100.00
56456;BME280;42354;53.218;6.564;2023-01-26T08:28:36;47276.63;;;-142.92;100.00
56456;BME280;42354;53.218;6.564;2023-01-26T08:31:11;47278.69;;;-142.92;100.00
56456;BME280;42354;53.218;6.564;2023-01-26T08:33:37;47284.84;;;-142.92;100.00
56456;BME280;42354;53.218;6.564;2023-01-26T08:36:05;47278.69;;;-142.92;100.00
56456;BME280;42354;53.218;6.564;2023-01-26T08:38:33;47280.75;;;-142.92;100.00
56456;BME280;42354;53.218;6.564;2023-01-26T08:41:02;47280.75;;;-142.92;100.00
56456;BME280;42354;53.218;6.564;2023-01-26T08:43:28;47278.69;;;-142.92;100.00
56456;BME280;42354;53.218;6.564;2023-01-26T08:45:54;47276.63;;;-142.92;100.00
56456;BME280;42354;53.218;6.564;2023-01-26T08:48:19;47282.78;;;-142.92;100.00
56456;BME280;42354;53.218;6.564;2023-01-26T08:50:45;47284.84;;;-142.92;100.00
56456;BME280;42354;53.218;6.564;2023-01-26T08:53:10;47284.84;;;-142.92;100.00
56456;BME280;42354;53.218;6.564;2023-01-26T08:55:37;47286.91;;;-142.92;100.00
56456;BME280;42354;53.218;6.564;2023-01-26T08:58:03;47286.91;;;-142.92;100.00
56456;BME280;42354;53.218;6.564;2023-01-26T09:00:29;47278.69;;;-142.92;100.00
56456;BME280;42354;53.218;6.564;2023-01-26T09:03:03;47286.91;;;-142.92;100.00
56456;BME280;42354;53.218;6.564;2023-01-26T09:05:34;47282.78;;;-142.92;100.00
56456;BME280;42354;53.218;6.564;2023-01-26T09:08:02;47280.75;;;-142.92;100.00
56456;BME280;42354;53.218;6.564;2023-01-26T09:10:27;47278.69;;;-142.92;100.00
56456;BME280;42354;53.218;6.564;2023-01-26T09:12:53;47272.53;;;-142.92;100.00
56456;BME280;42354;53.218;6.564;2023-01-26T09:15:18;47278.69;;;-142.92;100.00
56456;BME280;42354;53.218;6.564;2023-01-26T09:17:47;47270.47;;;-142.92;100.00
56456;BME280;42354;53.218;6.564;2023-01-26T09:20:13;47274.59;;;-142.92;100.00
56456;BME280;42354;53.218;6.564;2023-01-26T09:22:39;47274.59;;;-142.92;100.00
56456;BME280;42354;53.218;6.564;2023-01-26T09:25:05;47270.47;;;-142.92;100.00
56456;BME280;42354;53.218;6.564;2023-01-26T09:27:30;47256.13;;;-142.92;100.00
56456;BME280;42354;53.218;6.564;2023-01-26T09:29:56;47264.31;;;-142.92;100.00
56456;BME280;42354;53.218;6.564;2023-01-26T09:32:21;47264.31;;;-142.92;100.00
56456;BME280;42354;53.218;6.564;2023-01-26T09:34:47;47256.13;;;-142.92;100.00
56456;BME280;42354;53.218;6.564;2023-01-26T09:37:13;47262.28;;;-142.92;100.00
56456;BME280;42354;53.218;6.564;2023-01-26T09:39:40;47245.84;;;-142.92;99.89
56456;BME280;42354;53.218;6.564;2023-01-26T09:42:26;47243.81;;;-142.92;99.10
56456;BME280;42354;53.218;6.564;2023-01-26T09:45:03;47249.97;;;-142.92;99.07
56456;BME280;42354;53.218;6.564;2023-01-26T09:51:21;47254.06;;;-142.92;98.74
56456;BME280;42354;53.218;6.564;2023-01-26T09:53:25;47247.91;;;-142.92;98.73
56456;BME280;42354;53.218;6.564;2023-01-26T09:55:53;47243.81;;;-142.92;98.68
56456;BME280;42354;53.218;6.564;2023-01-26T09:58:32;47241.75;;;-142.92;98.48
56456;BME280;42354;53.218;6.564;2023-01-26T10:01:01;47249.97;;;-142.92;98.47
56456;BME280;42354;53.218;6.564;2023-01-26T10:04:03;47231.50;;;-142.92;98.19
56456;BME280;42354;53.218;6.564;2023-01-26T10:06:30;47233.53;;;-142.92;98.00
56456;BME280;42354;53.218;6.564;2023-01-26T10:09:20;47206.88;;;-142.92;97.07
56456;BME280;42354;53.218;6.564;2023-01-26T10:11:50;47219.19;;;-142.92;97.15
56456;BME280;42354;53.218;6.564;2023-01-26T10:14:24;47213.03;;;-142.92;97.01
56456;BME280;42354;53.218;6.564;2023-01-26T10:16:54;47198.66;;;-142.92;96.51
56456;BME280;42354;53.218;6.564;2023-01-26T10:19:34;47167.88;;;-142.92;95.48
56456;BME280;42354;53.218;6.564;2023-01-26T10:22:11;47143.25;;;-142.92;94.83
56456;BME280;42354;53.218;6.564;2023-01-26T10:24:38;47130.94;;;-142.92;94.71
56456;BME280;42354;53.218;6.564;2023-01-26T10:27:10;46979.06;;;-142.92;93.40
56456;BME280;42354;53.218;6.564;2023-01-26T10:29:38;46925.72;;;-142.92;93.08
56456;BME280;42354;53.218;6.564;2023-01-26T10:32:04;47030.38;;;-142.92;92.58
56456;BME280;42354;53.218;6.564;2023-01-26T10:34:30;47032.44;;;-142.92;91.78
56456;BME280;42354;53.218;6.564;2023-01-26T10:37:21;47016.00;;;-142.92;90.13
56456;BME280;42354;53.218;6.564;2023-01-26T10:40:08;47026.28;;;-142.92;90.23
56456;BME280;42354;53.218;6.564;2023-01-26T10:42:35;47011.91;;;-142.92;91.02
56456;BME280;42354;53.218;6.564;2023-01-26T10:45:04;47024.22;;;-142.92;91.16
56456;BME280;42354;53.218;6.564;2023-01-26T10:47:31;47032.44;;;-142.92;91.08
56456;BME280;42354;53.218;6.564;2023-01-26T10:50:21;47048.84;;;-142.92;90.09
56456;BME280;42354;53.218;6.564;2023-01-26T10:52:56;47048.84;;;-142.92;90.17
56456;BME280;42354;53.218;6.564;2023-01-26T10:55:22;47007.81;;;-142.92;89.96
56456;BME280;42354;53.218;6.564;2023-01-26T10:57:48;47036.53;;;-142.92;88.66
56456;BME280;42354;53.218;6.564;2023-01-26T11:00:30;47022.16;;;-142.92;86.90
56456;BME280;42354;53.218;6.564;2023-01-26T11:03:18;47018.06;;;-142.92;86.60
56456;BME280;42354;53.218;6.564;2023-01-26T11:05:44;47016.00;;;-142.92;87.54
56456;BME280;42354;53.218;6.564;2023-01-26T11:08:31;47032.44;;;-142.92;86.81
56456;BME280;42354;53.218;6.564;2023-01-26T11:11:00;47013.97;;;-142.92;86.93
56456;BME280;42354;53.218;6.564;2023-01-26T11:13:28;47026.28;;;-142.92;86.87
56456;BME280;42354;53.218;6.564;2023-01-26T11:16:14;47040.63;;;-142.92;85.45
56456;BME280;42354;53.218;6.564;2023-01-26T11:18:58;47028.31;;;-142.92;85.11
56456;BME280;42354;53.218;6.564;2023-01-26T11:21:45;47032.44;;;-142.92;83.88
56456;BME280;42354;53.218;6.564;2023-01-26T11:24:21;47016.00;;;-142.92;81.81
56456;BME280;42354;53.218;6.564;2023-01-26T11:29:28;47046.78;;;-142.92;80.79
56456;BME280;42354;53.218;6.564;2023-01-26T11:32:16;47032.44;;;-142.92;77.99
56456;BME280;42354;53.218;6.564;2023-01-26T11:34:55;47028.31;;;-142.92;78.52
56456;BME280;42354;53.218;6.564;2023-01-26T11:40:18;47028.31;;;-142.92;76.43
56456;BME280;42354;53.218;6.564;2023-01-26T11:43:05;47007.81;;;-142.92;75.60
56456;BME280;42354;53.218;6.564;2023-01-26T11:46:07;47022.16;;;-142.92;76.68
56456;BME280;42354;53.218;6.564;2023-01-26T11:49:15;47011.91;;;-142.92;76.66
56456;BME280;42354;53.218;6.564;2023-01-26T11:52:08;47032.44;;;-142.92;76.67
56456;BME280;42354;53.218;6.564;2023-01-26T11:55:06;47046.78;;;-142.92;77.52
56456;BME280;42354;53.218;6.564;2023-01-26T12:00:25;47036.53;;;-142.92;78.73
56456;BME280;42354;53.218;6.564;2023-01-26T12:03:03;47016.00;;;-142.92;79.30
56456;BME280;42354;53.218;6.564;2023-01-26T12:05:36;47036.53;;;-142.92;80.03
56456;BME280;42354;53.218;6.564;2023-01-26T12:08:22;47048.84;;;-142.92;80.21
56456;BME280;42354;53.218;6.564;2023-01-26T12:15:54;47026.28;;;-142.92;79.91
56456;BME280;42354;53.218;6.564;2023-01-26T12:18:28;47036.53;;;-142.92;80.50
56456;BME280;42354;53.218;6.564;2023-01-26T12:21:04;47024.22;;;-142.92;80.01
56456;BME280;42354;53.218;6.564;2023-01-26T12:24:01;47020.13;;;-142.92;80.25
56456;BME280;42354;53.218;6.564;2023-01-26T12:26:31;47024.22;;;-142.92;80.28
56456;BME280;42354;53.218;6.564;2023-01-26T12:29:05;47030.38;;;-142.92;80.88
56456;BME280;42354;53.218;6.564;2023-01-26T12:31:56;47022.16;;;-142.92;81.20
56456;BME280;42354;53.218;6.564;2023-01-26T12:34:29;47020.13;;;-142.92;81.31
56456;BME280;42354;53.218;6.564;2023-01-26T12:37:36;47011.91;;;-142.92;80.99
56456;BME280;42354;53.218;6.564;2023-01-26T12:40:18;47013.97;;;-142.92;81.11
56456;BME280;42354;53.218;6.564;2023-01-26T12:42:54;47020.13;;;-142.92;80.30
56456;BME280;42354;53.218;6.564;2023-01-26T12:45:35;47016.00;;;-142.92;80.23
56456;BME280;42354;53.218;6.564;2023-01-26T12:48:12;47013.97;;;-142.92;80.08
56456;BME280;42354;53.218;6.564;2023-01-26T12:53:17;47003.69;;;-142.92;79.03
56456;BME280;42354;53.218;6.564;2023-01-26T12:55:52;47011.91;;;-142.92;78.47
56456;BME280;42354;53.218;6.564;2023-01-26T12:58:23;47011.91;;;-142.92;77.51
56456;BME280;42354;53.218;6.564;2023-01-26T13:01:01;47024.22;;;-142.92;76.96
56456;BME280;42354;53.218;6.564;2023-01-26T13:03:31;47020.13;;;-142.92;77.51
56456;BME280;42354;53.218;6.564;2023-01-26T13:05:59;46999.59;;;-142.92;77.51
56456;BME280;42354;53.218;6.564;2023-01-26T13:10:54;47026.28;;;-142.92;77.30
56456;BME280;42354;53.218;6.564;2023-01-26T13:26:55;47007.81;;;-142.92;77.03
56456;BME280;42354;53.218;6.564;2023-01-26T13:31:57;47028.31;;;-142.92;77.65
56456;BME280;42354;53.218;6.564;2023-01-26T13:34:27;47022.16;;;-142.92;77.60
56456;BME280;42354;53.218;6.564;2023-01-26T13:37:20;46991.38;;;-142.92;77.21
56456;BME280;42354;53.218;6.564;2023-01-26T13:39:46;47022.16;;;-142.92;77.38